sensor_id;sensor_type;location;lat;lon;timestamp;temperature;humidity
20728;DHT22;10525;50.154;8.198;2023-03-23T00:02:12;11.20;99.90
20728;DHT22;10525;50.154;8.198;2023-03-23T00:04:40;11.40;99.90
20728;DHT22;10525;50.154;8.198;2023-03-23T00:07:08;11.60;99.90
20728;DHT22;10525;50.154;8.198;2023-03-23T00:09:34;11.50;99.90
20728;DHT22;10525;50.154;8.198;2023-03-23T00:12:06;11.50;99.90
20728;DHT22;10525;50.154;8.198;2023-03-23T00:14:33;11.50;99.90
20728;DHT22;10525;50.154;8.198;2023-03-23T00:17:07;11.60;99.90
20728;DHT22;10525;50.154;8.198;2023-03-23T00:19:35;11.60;99.90
20728;DHT22;10525;50.154;8.198;2023-03-23T00:22:12;11.60;99.90
20728;DHT22;10525;50.154;8.198;2023-03-23T00:24:39;11.70;99.90
20728;DHT22;10525;50.154;8.198;2023-03-23T00:27:06;11.80;99.90
20728;DHT22;10525;50.154;8.198;2023-03-23T00:29:34;11.80;99.90
20728;DHT22;10525;50.154;8.198;2023-03-23T00:32:00;11.90;99.90
20728;DHT22;10525;50.154;8.198;2023-03-23T00:34:27;12.00;99.90
20728;DHT22;10525;50.154;8.198;2023-03-23T00:36:58;12.00;99.90
20728;DHT22;10525;50.154;8.198;2023-03-23T00:39:27;12.10;99.90
20728;DHT22;10525;50.154;8.198;2023-03-23T00:41:55;12.10;99.90
20728;DHT22;10525;50.154;8.198;2023-03-23T00:44:26;12.10;99.90
20728;DHT22;10525;50.154;8.198;2023-03-23T00:46:54;12.10;99.90
20728;DHT22;10525;50.154;8.198;2023-03-23T00:49:22;12.10;99.90
20728;DHT22;10525;50.154;8.198;2023-03-23T00:51:50;12.10;99.90
20728;DHT22;10525;50.154;8.198;2023-03-23T00:54:17;12.10;99.90
20728;DHT22;10525;50.154;8.198;2023-03-23T00:56:45;12.10;99.90
20728;DHT22;10525;50.154;8.198;2023-03-23T00:59:12;12.20;99.90
20728;DHT22;10525;50.154;8.198;2023-03-23T01:01:39;12.20;99.90
20728;DHT22;10525;50.154;8.198;2023-03-23T01:04:06;12.20;99.90
20728;DHT22;10525;50.154;8.198;2023-03-23T01:06:36;12.20;99.90
20728;DHT22;10525;50.154;8.198;2023-03-23T01:09:05;12.20;99.90
20728;DHT22;10525;50.154;8.198;2023-03-23T01:11:32;12.30;99.90
20728;DHT22;10525;50.154;8.198;2023-03-23T01:14:00;12.30;99.90
20728;DHT22;10525;50.154;8.198;2023-03-23T01:16:27;12.30;99.90
20728;DHT22;10525;50.154;8.198;2023-03-23T01:18:54;12.30;99.90
20728;DHT22;10525;50.154;8.198;2023-03-23T01:21:21;12.30;99.90
20728;DHT22;10525;50.154;8.198;2023-03-23T01:23:50;12.30;99.90
20728;DHT22;10525;50.154;8.198;2023-03-23T01:26:18;12.20;99.90
20728;DHT22;10525;50.154;8.198;2023-03-23T01:28:46;12.20;99.90
20728;DHT22;10525;50.154;8.198;2023-03-23T01:31:16;12.20;99.90
20728;DHT22;10525;50.154;8.198;2023-03-23T01:33:44;12.20;99.90
20728;DHT22;10525;50.154;8.198;2023-03-23T01:36:12;12.10;99.90
20728;DHT22;10525;50.154;8.198;2023-03-23T01:38:41;12.10;99.90
20728;DHT22;10525;50.154;8.198;2023-03-23T01:41:08;12.10;99.90
20728;DHT22;10525;50.154;8.198;2023-03-23T01:43:36;12.10;99.90
20728;DHT22;10525;50.154;8.198;2023-03-23T01:46:03;12.10;99.90
20728;DHT22;10525;50.154;8.198;2023-03-23T01:48:32;12.10;99.90
20728;DHT22;10525;50.154;8.198;2023-03-23T01:51:03;12.00;99.90
20728;DHT22;10525;50.154;8.198;2023-03-23T01:53:34;12.00;99.90
20728;DHT22;10525;50.154;8.198;2023-03-23T01:56:04;12.00;99.90
20728;DHT22;10525;50.154;8.198;2023-03-23T01:58:33;11.90;99.90
20728;DHT22;10525;50.154;8.198;2023-03-23T02:01:03;11.90;99.90
20728;DHT22;10525;50.154;8.198;2023-03-23T02:03:34;11.90;99.90
20728;DHT22;10525;50.154;8.198;2023-03-23T02:06:02;11.90;99.90
20728;DHT22;10525;50.154;8.198;2023-03-23T02:08:31;11.80;99.90
20728;DHT22;10525;50.154;8.198;2023-03-23T02:10:58;11.80;99.90
20728;DHT22;10525;50.154;8.198;2023-03-23T02:13:26;11.80;99.90
20728;DHT22;10525;50.154;8.198;2023-03-23T02:15:59;11.80;99.90
20728;DHT22;10525;50.154;8.198;2023-03-23T02:18:39;11.70;99.90
20728;DHT22;10525;50.154;8.198;2023-03-23T02:24:43;11.80;99.90
20728;DHT22;10525;50.154;8.198;2023-03-23T02:27:19;11.80;99.90
20728;DHT22;10525;50.154;8.198;2023-03-23T02:29:55;11.80;99.90
20728;DHT22;10525;50.154;8.198;2023-03-23T02:35:35;11.60;99.90
20728;DHT22;10525;50.154;8.198;2023-03-23T02:38:06;11.50;99.90
20728;DHT22;10525;50.154;8.198;2023-03-23T02:40:39;11.40;99.90
20728;DHT22;10525;50.154;8.198;2023-03-23T02:43:11;11.30;99.90
20728;DHT22;10525;50.154;8.198;2023-03-23T02:45:40;11.20;99.90
20728;DHT22;10525;50.154;8.198;2023-03-23T02:48:08;11.20;99.90
20728;DHT22;10525;50.154;8.198;2023-03-23T02:50:38;11.20;99.90
20728;DHT22;10525;50.154;8.198;2023-03-23T02:53:09;11.20;99.90
20728;DHT22;10525;50.154;8.198;2023-03-23T02:55:37;11.20;99.90
20728;DHT22;10525;50.154;8.198;2023-03-23T02:58:06;11.20;99.90
20728;DHT22;10525;50.154;8.198;2023-03-23T03:00:32;11.20;99.90
20728;DHT22;10525;50.154;8.198;2023-03-23T03:03:00;11.20;99.90
20728;DHT22;10525;50.154;8.198;2023-03-23T03:05:38;11.10;99.90
20728;DHT22;10525;50.154;8.198;2023-03-23T03:08:15;11.00;99.90
20728;DHT22;10525;50.154;8.198;2023-03-23T03:10:49;11.00;99.90
20728;DHT22;10525;50.154;8.198;2023-03-23T03:13:25;10.90;99.90
20728;DHT22;10525;50.154;8.198;2023-03-23T03:16:00;10.90;99.90
20728;DHT22;10525;50.154;8.198;2023-03-23T03:18:30;10.80;99.90
20728;DHT22;10525;50.154;8.198;2023-03-23T03:21:04;10.70;99.90
20728;DHT22;10525;50.154;8.198;2023-03-23T03:23:32;10.80;99.90
20728;DHT22;10525;50.154;8.198;2023-03-23T03:26:01;10.80;99.90
20728;DHT22;10525;50.154;8.198;2023-03-23T03:28:31;10.80;99.90
20728;DHT22;10525;50.154;8.198;2023-03-23T03:31:01;10.90;99.90
20728;DHT22;10525;50.154;8.198;2023-03-23T03:33:30;10.80;99.90
20728;DHT22;10525;50.154;8.198;2023-03-23T03:36:02;10.90;99.90
20728;DHT22;10525;50.154;8.198;2023-03-23T03:38:29;10.90;99.90
20728;DHT22;10525;50.154;8.198;2023-03-23T03:41:06;10.90;99.90
20728;DHT22;10525;50.154;8.198;2023-03-23T03:43:33;11.00;99.90
20728;DHT22;10525;50.154;8.198;2023-03-23T03:46:00;11.10;99.90
20728;DHT22;10525;50.154;8.198;2023-03-23T03:48:27;11.00;99.90
20728;DHT22;10525;50.154;8.198;2023-03-23T03:50:53;11.00;99.90
20728;DHT22;10525;50.154;8.198;2023-03-23T03:53:23;11.10;99.90
20728;DHT22;10525;50.154;8.198;2023-03-23T03:55:50;11.10;99.90
20728;DHT22;10525;50.154;8.198;2023-03-23T03:58:21;11.10;99.90
20728;DHT22;10525;50.154;8.198;2023-03-23T04:00:48;11.20;99.90
20728;DHT22;10525;50.154;8.198;2023-03-23T04:03:14;11.10;99.90
20728;DHT22;10525;50.154;8.198;2023-03-23T04:05:41;11.10;99.90
20728;DHT22;10525;50.154;8.198;2023-03-23T04:08:10;11.10;99.90
20728;DHT22;10525;50.154;8.198;2023-03-23T04:10:38;11.10;99.90
20728;DHT22;10525;50.154;8.198;2023-03-23T04:13:04;11.00;99.90
20728;DHT22;10525;50.154;8.198;2023-03-23T04:15:31;11.10;99.90
20728;DHT22;10525;50.154;8.198;2023-03-23T04:17:58;11.20;99.90
20728;DHT22;10525;50.154;8.198;2023-03-23T04:20:25;11.10;99.90
20728;DHT22;10525;50.154;8.198;2023-03-23T04:22:52;11.10;99.90
20728;DHT22;10525;50.154;8.198;2023-03-23T04:25:20;11.10;99.90
20728;DHT22;10525;50.154;8.198;2023-03-23T04:27:49;11.10;99.90
20728;DHT22;10525;50.154;8.198;2023-03-23T04:30:19;11.20;99.90
20728;DHT22;10525;50.154;8.198;2023-03-23T04:32:47;11.10;99.90
20728;DHT22;10525;50.154;8.198;2023-03-23T04:35:16;11.20;99.90
20728;DHT22;10525;50.154;8.198;2023-03-23T04:37:43;11.20;99.90
20728;DHT22;10525;50.154;8.198;2023-03-23T04:40:11;11.20;99.90
20728;DHT22;10525;50.154;8.198;2023-03-23T04:42:40;11.10;99.90
20728;DHT22;10525;50.154;8.198;2023-03-23T04:45:13;11.20;99.90
20728;DHT22;10525;50.154;8.198;2023-03-23T04:47:41;11.20;99.90
20728;DHT22;10525;50.154;8.198;2023-03-23T04:50:21;11.10;99.90
20728;DHT22;10525;50.154;8.198;2023-03-23T04:52:49;11.10;99.90
20728;DHT22;10525;50.154;8.198;2023-03-23T04:55:17;11.10;99.90
20728;DHT22;10525;50.154;8.198;2023-03-23T04:57:44;11.00;99.90
20728;DHT22;10525;50.154;8.198;2023-03-23T05:00:13;11.00;99.90
20728;DHT22;10525;50.154;8.198;2023-03-23T05:02:42;10.90;99.90
20728;DHT22;10525;50.154;8.198;2023-03-23T05:05:10;10.90;99.90
20728;DHT22;10525;50.154;8.198;2023-03-23T05:07:39;10.90;99.90
20728;DHT22;10525;50.154;8.198;2023-03-23T05:10:07;10.90;99.90
20728;DHT22;10525;50.154;8.198;2023-03-23T05:12:35;10.90;99.90
20728;DHT22;10525;50.154;8.198;2023-03-23T05:15:02;11.00;99.90
20728;DHT22;10525;50.154;8.198;2023-03-23T05:17:30;10.90;99.90
20728;DHT22;10525;50.154;8.198;2023-03-23T05:19:57;10.90;99.90
20728;DHT22;10525;50.154;8.198;2023-03-23T05:22:28;10.90;99.90
20728;DHT22;10525;50.154;8.198;2023-03-23T05:24:57;10.80;99.90
20728;DHT22;10525;50.154;8.198;2023-03-23T05:27:24;10.90;99.90
20728;DHT22;10525;50.154;8.198;2023-03-23T05:29:53;10.90;99.90
20728;DHT22;10525;50.154;8.198;2023-03-23T05:32:20;10.90;99.90
20728;DHT22;10525;50.154;8.198;2023-03-23T05:34:55;10.90;99.90
20728;DHT22;10525;50.154;8.198;2023-03-23T05:37:22;10.90;99.90
20728;DHT22;10525;50.154;8.198;2023-03-23T05:39:49;10.80;99.90
20728;DHT22;10525;50.154;8.198;2023-03-23T05:42:18;10.80;99.90
20728;DHT22;10525;50.154;8.198;2023-03-23T05:44:45;10.80;99.90
20728;DHT22;10525;50.154;8.198;2023-03-23T05:47:12;10.80;99.90
20728;DHT22;10525;50.154;8.198;2023-03-23T05:49:39;10.90;99.90
20728;DHT22;10525;50.154;8.198;2023-03-23T05:52:07;10.80;99.90
20728;DHT22;10525;50.154;8.198;2023-03-23T05:54:34;10.80;99.90
20728;DHT22;10525;50.154;8.198;2023-03-23T05:57:01;10.80;99.90
20728;DHT22;10525;50.154;8.198;2023-03-23T05:59:28;10.80;99.90
20728;DHT22;10525;50.154;8.198;2023-03-23T06:01:54;10.80;99.90
20728;DHT22;10525;50.154;8.198;2023-03-23T06:04:22;10.80;99.90
20728;DHT22;10525;50.154;8.198;2023-03-23T06:06:50;10.70;99.90
20728;DHT22;10525;50.154;8.198;2023-03-23T06:09:18;10.80;99.90
20728;DHT22;10525;50.154;8.198;2023-03-23T06:11:45;10.70;99.90
20728;DHT22;10525;50.154;8.198;2023-03-23T06:14:13;10.80;99.90
20728;DHT22;10525;50.154;8.198;2023-03-23T06:16:39;10.80;99.90
20728;DHT22;10525;50.154;8.198;2023-03-23T06:19:06;10.80;99.90
20728;DHT22;10525;50.154;8.198;2023-03-23T06:21:33;10.80;99.90
20728;DHT22;10525;50.154;8.198;2023-03-23T06:24:00;10.80;99.90
20728;DHT22;10525;50.154;8.198;2023-03-23T06:26:30;10.90;99.90
20728;DHT22;10525;50.154;8.198;2023-03-23T06:28:58;11.00;99.90
20728;DHT22;10525;50.154;8.198;2023-03-23T06:31:26;11.00;99.90
20728;DHT22;10525;50.154;8.198;2023-03-23T06:33:53;11.00;99.90
20728;DHT22;10525;50.154;8.198;2023-03-23T06:36:20;11.10;99.90
20728;DHT22;10525;50.154;8.198;2023-03-23T06:38:48;11.10;99.90
20728;DHT22;10525;50.154;8.198;2023-03-23T06:41:15;11.10;99.90
20728;DHT22;10525;50.154;8.198;2023-03-23T06:43:43;11.00;99.90
20728;DHT22;10525;50.154;8.198;2023-03-23T06:46:11;10.90;99.90
20728;DHT22;10525;50.154;8.198;2023-03-23T06:48:38;10.90;99.90
20728;DHT22;10525;50.154;8.198;2023-03-23T06:51:05;10.90;99.90
20728;DHT22;10525;50.154;8.198;2023-03-23T06:53:33;10.90;99.90
20728;DHT22;10525;50.154;8.198;2023-03-23T06:55:59;10.90;99.90
20728;DHT22;10525;50.154;8.198;2023-03-23T06:58:26;10.90;99.90
20728;DHT22;10525;50.154;8.198;2023-03-23T07:00:55;10.90;99.90
20728;DHT22;10525;50.154;8.198;2023-03-23T07:03:23;10.90;99.90
20728;DHT22;10525;50.154;8.198;2023-03-23T07:05:51;10.90;99.90
20728;DHT22;10525;50.154;8.198;2023-03-23T07:08:17;10.80;99.90
20728;DHT22;10525;50.154;8.198;2023-03-23T07:10:44;10.80;99.90
20728;DHT22;10525;50.154;8.198;2023-03-23T07:13:11;10.90;99.90
20728;DHT22;10525;50.154;8.198;2023-03-23T07:15:38;10.90;99.90
20728;DHT22;10525;50.154;8.198;2023-03-23T07:18:06;10.90;99.90
20728;DHT22;10525;50.154;8.198;2023-03-23T07:20:33;10.90;99.90
20728;DHT22;10525;50.154;8.198;2023-03-23T07:23:00;10.90;99.90
20728;DHT22;10525;50.154;8.198;2023-03-23T07:25:27;10.80;99.90
20728;DHT22;10525;50.154;8.198;2023-03-23T07:27:54;10.90;99.90
20728;DHT22;10525;50.154;8.198;2023-03-23T07:30:21;10.80;99.90
20728;DHT22;10525;50.154;8.198;2023-03-23T07:32:48;10.90;99.90
20728;DHT22;10525;50.154;8.198;2023-03-23T07:35:16;10.90;99.90
20728;DHT22;10525;50.154;8.198;2023-03-23T07:37:43;11.00;99.90
20728;DHT22;10525;50.154;8.198;2023-03-23T07:40:11;11.00;99.90
20728;DHT22;10525;50.154;8.198;2023-03-23T07:42:41;11.00;99.90
20728;DHT22;10525;50.154;8.198;2023-03-23T07:45:09;11.00;99.90
20728;DHT22;10525;50.154;8.198;2023-03-23T07:47:36;11.10;99.90
20728;DHT22;10525;50.154;8.198;2023-03-23T07:50:03;11.10;99.90
20728;DHT22;10525;50.154;8.198;2023-03-23T07:52:31;11.20;99.90
20728;DHT22;10525;50.154;8.198;2023-03-23T07:54:58;11.20;99.90
20728;DHT22;10525;50.154;8.198;2023-03-23T07:57:26;11.20;99.90
20728;DHT22;10525;50.154;8.198;2023-03-23T07:59:53;11.20;99.90
20728;DHT22;10525;50.154;8.198;2023-03-23T08:02:20;11.30;99.90
20728;DHT22;10525;50.154;8.198;2023-03-23T08:04:47;11.30;99.90
20728;DHT22;10525;50.154;8.198;2023-03-23T08:07:14;11.30;99.90
20728;DHT22;10525;50.154;8.198;2023-03-23T08:09:43;11.40;99.90
20728;DHT22;10525;50.154;8.198;2023-03-23T08:12:09;11.40;99.90
20728;DHT22;10525;50.154;8.198;2023-03-23T08:14:36;11.50;99.90
20728;DHT22;10525;50.154;8.198;2023-03-23T08:17:04;11.50;99.90
20728;DHT22;10525;50.154;8.198;2023-03-23T08:19:30;11.70;99.90
20728;DHT22;10525;50.154;8.198;2023-03-23T08:22:03;11.80;99.90
20728;DHT22;10525;50.154;8.198;2023-03-23T08:24:30;11.90;99.90
20728;DHT22;10525;50.154;8.198;2023-03-23T08:26:58;11.80;99.90
20728;DHT22;10525;50.154;8.198;2023-03-23T08:29:25;11.60;99.90
20728;DHT22;10525;50.154;8.198;2023-03-23T08:31:52;11.60;99.90
20728;DHT22;10525;50.154;8.198;2023-03-23T08:34:19;11.70;99.90
20728;DHT22;10525;50.154;8.198;2023-03-23T08:36:45;11.90;99.90
20728;DHT22;10525;50.154;8.198;2023-03-23T08:39:13;12.10;99.90
20728;DHT22;10525;50.154;8.198;2023-03-23T08:41:40;12.40;99.90
20728;DHT22;10525;50.154;8.198;2023-03-23T08:44:08;12.50;99.90
20728;DHT22;10525;50.154;8.198;2023-03-23T08:46:34;12.60;99.90
20728;DHT22;10525;50.154;8.198;2023-03-23T08:49:01;12.60;99.90
20728;DHT22;10525;50.154;8.198;2023-03-23T08:51:28;12.40;99.90
20728;DHT22;10525;50.154;8.198;2023-03-23T08:53:55;12.40;99.90
20728;DHT22;10525;50.154;8.198;2023-03-23T08:56:21;12.30;99.90
20728;DHT22;10525;50.154;8.198;2023-03-23T08:58:48;12.20;99.90
20728;DHT22;10525;50.154;8.198;2023-03-23T09:01:16;12.30;99.90
20728;DHT22;10525;50.154;8.198;2023-03-23T09:03:43;12.30;99.90
20728;DHT22;10525;50.154;8.198;2023-03-23T09:06:10;12.20;99.90
20728;DHT22;10525;50.154;8.198;2023-03-23T09:08:38;12.30;99.90
20728;DHT22;10525;50.154;8.198;2023-03-23T09:11:07;12.60;99.90
20728;DHT22;10525;50.154;8.198;2023-03-23T09:13:35;12.80;99.90
20728;DHT22;10525;50.154;8.198;2023-03-23T09:16:03;12.90;99.90
20728;DHT22;10525;50.154;8.198;2023-03-23T09:18:31;13.00;99.90
20728;DHT22;10525;50.154;8.198;2023-03-23T09:20:59;13.20;99.90
20728;DHT22;10525;50.154;8.198;2023-03-23T09:23:27;13.20;99.90
20728;DHT22;10525;50.154;8.198;2023-03-23T09:25:53;13.20;99.90
20728;DHT22;10525;50.154;8.198;2023-03-23T09:28:20;13.10;99.90
20728;DHT22;10525;50.154;8.198;2023-03-23T09:30:47;13.20;99.90
20728;DHT22;10525;50.154;8.198;2023-03-23T09:33:15;13.20;99.90
20728;DHT22;10525;50.154;8.198;2023-03-23T09:35:43;13.10;99.90
20728;DHT22;10525;50.154;8.198;2023-03-23T09:38:10;13.10;99.90
20728;DHT22;10525;50.154;8.198;2023-03-23T09:40:43;13.10;99.90
20728;DHT22;10525;50.154;8.198;2023-03-23T09:43:31;13.00;99.90
20728;DHT22;10525;50.154;8.198;2023-03-23T09:46:13;13.00;99.90
20728;DHT22;10525;50.154;8.198;2023-03-23T09:48:48;12.90;99.90
20728;DHT22;10525;50.154;8.198;2023-03-23T09:51:26;12.90;99.90
20728;DHT22;10525;50.154;8.198;2023-03-23T09:53:57;12.90;99.90
20728;DHT22;10525;50.154;8.198;2023-03-23T09:56:27;13.00;99.90
20728;DHT22;10525;50.154;8.198;2023-03-23T09:58:58;13.10;99.90
20728;DHT22;10525;50.154;8.198;2023-03-23T10:01:31;13.10;99.90
20728;DHT22;10525;50.154;8.198;2023-03-23T10:04:02;13.00;99.90
20728;DHT22;10525;50.154;8.198;2023-03-23T10:06:31;13.10;99.90
20728;DHT22;10525;50.154;8.198;2023-03-23T10:09:00;13.10;99.90
20728;DHT22;10525;50.154;8.198;2023-03-23T10:11:37;13.10;99.90
20728;DHT22;10525;50.154;8.198;2023-03-23T10:14:18;13.10;99.90
20728;DHT22;10525;50.154;8.198;2023-03-23T10:16:55;13.00;99.90
20728;DHT22;10525;50.154;8.198;2023-03-23T10:19:29;13.00;99.90
20728;DHT22;10525;50.154;8.198;2023-03-23T10:22:01;12.90;99.90
20728;DHT22;10525;50.154;8.198;2023-03-23T10:24:34;13.00;99.90
20728;DHT22;10525;50.154;8.198;2023-03-23T10:27:07;13.10;99.90
20728;DHT22;10525;50.154;8.198;2023-03-23T10:29:42;13.30;99.90
20728;DHT22;10525;50.154;8.198;2023-03-23T10:32:11;13.20;99.90
20728;DHT22;10525;50.154;8.198;2023-03-23T10:34:42;13.20;99.90
20728;DHT22;10525;50.154;8.198;2023-03-23T10:37:14;13.20;99.90
20728;DHT22;10525;50.154;8.198;2023-03-23T10:39:47;13.30;99.90
20728;DHT22;10525;50.154;8.198;2023-03-23T10:42:26;13.40;99.90
20728;DHT22;10525;50.154;8.198;2023-03-23T10:44:53;13.60;99.90
20728;DHT22;10525;50.154;8.198;2023-03-23T10:47:22;13.50;99.90
20728;DHT22;10525;50.154;8.198;2023-03-23T10:49:52;13.50;99.90
20728;DHT22;10525;50.154;8.198;2023-03-23T10:52:31;13.60;99.90
20728;DHT22;10525;50.154;8.198;2023-03-23T10:55:03;13.90;99.90
20728;DHT22;10525;50.154;8.198;2023-03-23T10:57:33;14.00;99.90
20728;DHT22;10525;50.154;8.198;2023-03-23T11:00:02;14.30;99.90
20728;DHT22;10525;50.154;8.198;2023-03-23T11:02:35;14.60;99.90
20728;DHT22;10525;50.154;8.198;2023-03-23T11:05:06;14.60;99.90
20728;DHT22;10525;50.154;8.198;2023-03-23T11:07:35;14.90;99.90
20728;DHT22;10525;50.154;8.198;2023-03-23T11:10:15;15.10;99.90
20728;DHT22;10525;50.154;8.198;2023-03-23T11:12:44;15.10;99.90
20728;DHT22;10525;50.154;8.198;2023-03-23T11:15:23;15.10;99.90
20728;DHT22;10525;50.154;8.198;2023-03-23T11:17:59;14.70;99.90
20728;DHT22;10525;50.154;8.198;2023-03-23T11:20:27;14.70;99.90
20728;DHT22;10525;50.154;8.198;2023-03-23T11:22:56;14.40;99.90
20728;DHT22;10525;50.154;8.198;2023-03-23T11:25:23;14.30;99.90
20728;DHT22;10525;50.154;8.198;2023-03-23T11:27:52;14.20;99.90
20728;DHT22;10525;50.154;8.198;2023-03-23T11:30:22;14.20;99.90
20728;DHT22;10525;50.154;8.198;2023-03-23T11:32:50;14.20;99.90
20728;DHT22;10525;50.154;8.198;2023-03-23T11:35:20;14.20;99.90
20728;DHT22;10525;50.154;8.198;2023-03-23T11:37:49;14.00;99.90
20728;DHT22;10525;50.154;8.198;2023-03-23T11:40:21;13.90;99.90
20728;DHT22;10525;50.154;8.198;2023-03-23T11:42:49;13.90;99.90
20728;DHT22;10525;50.154;8.198;2023-03-23T11:45:27;13.80;99.90
20728;DHT22;10525;50.154;8.198;2023-03-23T11:48:03;13.90;99.90
20728;DHT22;10525;50.154;8.198;2023-03-23T11:50:37;14.00;99.90
20728;DHT22;10525;50.154;8.198;2023-03-23T11:53:11;13.90;99.90
20728;DHT22;10525;50.154;8.198;2023-03-23T11:55:55;13.90;99.90
20728;DHT22;10525;50.154;8.198;2023-03-23T11:58:24;13.80;99.90
20728;DHT22;10525;50.154;8.198;2023-03-23T12:00:59;13.50;99.90
20728;DHT22;10525;50.154;8.198;2023-03-23T12:03:40;13.30;99.90
20728;DHT22;10525;50.154;8.198;2023-03-23T12:06:10;13.10;99.90
20728;DHT22;10525;50.154;8.198;2023-03-23T12:08:55;13.20;99.90
20728;DHT22;10525;50.154;8.198;2023-03-23T12:11:30;13.10;99.90
20728;DHT22;10525;50.154;8.198;2023-03-23T12:14:08;13.10;99.90
20728;DHT22;10525;50.154;8.198;2023-03-23T12:16:50;13.20;99.90
20728;DHT22;10525;50.154;8.198;2023-03-23T12:19:26;13.20;99.90
20728;DHT22;10525;50.154;8.198;2023-03-23T12:21:59;13.30;99.90
20728;DHT22;10525;50.154;8.198;2023-03-23T12:24:40;13.60;99.90
20728;DHT22;10525;50.154;8.198;2023-03-23T12:27:16;13.80;99.90
20728;DHT22;10525;50.154;8.198;2023-03-23T12:30:06;14.00;99.90
20728;DHT22;10525;50.154;8.198;2023-03-23T12:32:42;14.10;99.90
20728;DHT22;10525;50.154;8.198;2023-03-23T12:35:23;14.20;99.90
20728;DHT22;10525;50.154;8.198;2023-03-23T12:37:59;14.40;99.90
20728;DHT22;10525;50.154;8.198;2023-03-23T12:40:39;14.60;99.90
20728;DHT22;10525;50.154;8.198;2023-03-23T12:43:15;14.50;99.90
20728;DHT22;10525;50.154;8.198;2023-03-23T12:46:07;14.70;99.90
20728;DHT22;10525;50.154;8.198;2023-03-23T12:48:40;14.90;99.90
20728;DHT22;10525;50.154;8.198;2023-03-23T12:51:17;15.10;99.90
20728;DHT22;10525;50.154;8.198;2023-03-23T12:53:52;15.30;99.90
20728;DHT22;10525;50.154;8.198;2023-03-23T12:56:26;15.40;99.90
20728;DHT22;10525;50.154;8.198;2023-03-23T12:59:03;15.40;99.90
20728;DHT22;10525;50.154;8.198;2023-03-23T13:01:35;15.70;99.90
20728;DHT22;10525;50.154;8.198;2023-03-23T13:04:07;15.60;99.90
20728;DHT22;10525;50.154;8.198;2023-03-23T13:06:36;15.40;99.90
20728;DHT22;10525;50.154;8.198;2023-03-23T13:09:07;15.30;99.90
20728;DHT22;10525;50.154;8.198;2023-03-23T13:11:38;15.50;99.90
20728;DHT22;10525;50.154;8.198;2023-03-23T13:14:16;15.50;99.90
20728;DHT22;10525;50.154;8.198;2023-03-23T13:16:51;14.90;99.90
20728;DHT22;10525;50.154;8.198;2023-03-23T13:19:25;15.00;99.90
20728;DHT22;10525;50.154;8.198;2023-03-23T13:21:58;15.20;99.90
20728;DHT22;10525;50.154;8.198;2023-03-23T13:24:30;15.10;99.90
20728;DHT22;10525;50.154;8.198;2023-03-23T13:26:59;14.80;99.90
20728;DHT22;10525;50.154;8.198;2023-03-23T13:29:28;14.80;99.90
20728;DHT22;10525;50.154;8.198;2023-03-23T13:32:05;14.70;99.90
20728;DHT22;10525;50.154;8.198;2023-03-23T13:34:32;14.70;99.90
20728;DHT22;10525;50.154;8.198;2023-03-23T13:37:00;14.70;99.90
20728;DHT22;10525;50.154;8.198;2023-03-23T13:39:31;14.50;99.90
20728;DHT22;10525;50.154;8.198;2023-03-23T13:42:02;14.30;99.90
20728;DHT22;10525;50.154;8.198;2023-03-23T13:44:42;14.40;99.90
20728;DHT22;10525;50.154;8.198;2023-03-23T13:47:21;14.50;99.90
20728;DHT22;10525;50.154;8.198;2023-03-23T13:49:50;14.90;99.90
20728;DHT22;10525;50.154;8.198;2023-03-23T13:52:23;15.10;99.90
20728;DHT22;10525;50.154;8.198;2023-03-23T13:54:51;15.20;99.90
20728;DHT22;10525;50.154;8.198;2023-03-23T13:57:35;14.90;99.90
20728;DHT22;10525;50.154;8.198;2023-03-23T14:02:59;14.50;99.90
20728;DHT22;10525;50.154;8.198;2023-03-23T14:05:33;14.30;99.90
20728;DHT22;10525;50.154;8.198;2023-03-23T14:08:02;14.40;99.90
20728;DHT22;10525;50.154;8.198;2023-03-23T14:10:41;14.20;99.90
20728;DHT22;10525;50.154;8.198;2023-03-23T14:13:15;14.10;99.90
20728;DHT22;10525;50.154;8.198;2023-03-23T14:15:53;14.10;99.90
20728;DHT22;10525;50.154;8.198;2023-03-23T14:18:22;14.00;99.90
20728;DHT22;10525;50.154;8.198;2023-03-23T14:20:50;13.80;99.90
20728;DHT22;10525;50.154;8.198;2023-03-23T14:23:18;13.80;99.90
20728;DHT22;10525;50.154;8.198;2023-03-23T14:25:54;13.70;99.90
20728;DHT22;10525;50.154;8.198;2023-03-23T14:28:21;13.60;99.90
20728;DHT22;10525;50.154;8.198;2023-03-23T14:30:52;13.50;99.90
20728;DHT22;10525;50.154;8.198;2023-03-23T14:33:20;13.40;99.90
20728;DHT22;10525;50.154;8.198;2023-03-23T14:35:47;13.40;99.90
20728;DHT22;10525;50.154;8.198;2023-03-23T14:38:17;13.30;99.90
20728;DHT22;10525;50.154;8.198;2023-03-23T14:40:45;13.30;99.90
20728;DHT22;10525;50.154;8.198;2023-03-23T14:43:15;13.30;99.90
20728;DHT22;10525;50.154;8.198;2023-03-23T14:45:42;13.30;99.90
20728;DHT22;10525;50.154;8.198;2023-03-23T14:48:14;13.20;99.90
20728;DHT22;10525;50.154;8.198;2023-03-23T14:50:48;13.30;99.90
20728;DHT22;10525;50.154;8.198;2023-03-23T14:53:19;13.30;99.90
20728;DHT22;10525;50.154;8.198;2023-03-23T14:55:47;13.40;99.90
20728;DHT22;10525;50.154;8.198;2023-03-23T14:58:17;13.50;99.90
20728;DHT22;10525;50.154;8.198;2023-03-23T15:00:47;13.50;99.90
20728;DHT22;10525;50.154;8.198;2023-03-23T15:03:17;13.60;99.90
20728;DHT22;10525;50.154;8.198;2023-03-23T15:05:47;13.50;99.90
20728;DHT22;10525;50.154;8.198;2023-03-23T15:08:19;13.60;99.90
20728;DHT22;10525;50.154;8.198;2023-03-23T15:10:53;13.80;99.90
20728;DHT22;10525;50.154;8.198;2023-03-23T15:13:20;14.00;99.90
20728;DHT22;10525;50.154;8.198;2023-03-23T15:15:47;14.20;99.90
20728;DHT22;10525;50.154;8.198;2023-03-23T15:18:29;14.30;99.90
20728;DHT22;10525;50.154;8.198;2023-03-23T15:20:56;14.50;99.90
20728;DHT22;10525;50.154;8.198;2023-03-23T15:23:27;14.40;99.90
20728;DHT22;10525;50.154;8.198;2023-03-23T15:25:56;14.30;99.90
20728;DHT22;10525;50.154;8.198;2023-03-23T15:28:29;14.30;99.90
20728;DHT22;10525;50.154;8.198;2023-03-23T15:30:59;14.20;99.90
20728;DHT22;10525;50.154;8.198;2023-03-23T15:33:34;14.10;99.90
20728;DHT22;10525;50.154;8.198;2023-03-23T15:36:06;13.90;99.90
20728;DHT22;10525;50.154;8.198;2023-03-23T15:38:34;13.80;99.90
20728;DHT22;10525;50.154;8.198;2023-03-23T15:41:03;13.60;99.90
20728;DHT22;10525;50.154;8.198;2023-03-23T15:43:32;13.40;99.90
20728;DHT22;10525;50.154;8.198;2023-03-23T15:46:00;13.20;99.90
20728;DHT22;10525;50.154;8.198;2023-03-23T15:48:30;13.20;99.90
20728;DHT22;10525;50.154;8.198;2023-03-23T15:50:58;13.10;99.90
20728;DHT22;10525;50.154;8.198;2023-03-23T15:53:31;13.10;99.90
20728;DHT22;10525;50.154;8.198;2023-03-23T15:55:59;13.10;99.90
20728;DHT22;10525;50.154;8.198;2023-03-23T15:58:27;13.10;99.90